createdAt,value
2022-09-13T00:01:51.131Z,97363.03
2022-09-13T00:11:53.937Z,97369.38
2022-09-13T00:21:56.182Z,97369.22
2022-09-13T00:31:58.433Z,97361.19
2022-09-13T00:42:00.939Z,97362.34
2022-09-13T00:52:07.970Z,97365.13
2022-09-13T01:02:11.347Z,97358.75
2022-09-13T01:12:25.965Z,97370.06
2022-09-13T01:22:59.420Z,97375.34
2022-09-13T01:33:46.316Z,97382.66
2022-09-13T01:43:56.448Z,97373.72
2022-09-13T01:54:15.416Z,97372.16
2022-09-13T02:04:23.125Z,97376.84
2022-09-13T02:14:35.942Z,97368.03
2022-09-13T02:24:47.596Z,97364.53
2022-09-13T02:35:16.687Z,97354.19
2022-09-13T02:45:26.058Z,97351.78
2022-09-13T02:55:38.425Z,97349.59
2022-09-13T03:05:40.931Z,97360.00
2022-09-13T03:16:30.440Z,97354.34
2022-09-13T03:27:15.049Z,97344.94
2022-09-13T03:37:35.181Z,97346.56
2022-09-13T03:47:40.817Z,97341.72
2022-09-13T03:57:43.065Z,97334.72
2022-09-13T04:07:45.306Z,97330.50
2022-09-13T04:17:48.134Z,97334.06
2022-09-13T04:28:00.173Z,97344.22
2022-09-13T04:38:04.440Z,97351.88
2022-09-13T04:48:06.940Z,97352.47
2022-09-13T04:58:09.267Z,97342.13
2022-09-13T05:08:11.850Z,97331.88
2022-09-13T05:18:14.322Z,97338.63
2022-09-13T05:28:16.618Z,97332.34
2022-09-13T05:38:19.554Z,97335.56
2022-09-13T05:48:24.013Z,97311.69
2022-09-13T05:58:27.203Z,97316.25
2022-09-13T06:08:33.980Z,97316.94
2022-09-13T06:18:37.001Z,97324.50
2022-09-13T06:28:40.443Z,97314.41
2022-09-13T06:38:43.539Z,97297.47
2022-09-13T06:48:48.122Z,97294.50
2022-09-13T06:59:12.750Z,97297.25
2022-09-13T07:09:21.711Z,97295.91
2022-09-13T07:19:27.252Z,97303.03
2022-09-13T07:29:32.142Z,97293.28
2022-09-13T07:39:37.116Z,97300.84
2022-09-13T07:49:52.489Z,97295.75
2022-09-13T07:59:55.995Z,97300.63
2022-09-13T08:10:00.183Z,97301.84
2022-09-13T08:20:06.206Z,97300.31
2022-09-13T08:30:13.868Z,97309.03
2022-09-13T08:40:19.283Z,97303.09
2022-09-13T08:50:47.157Z,97316.41
2022-09-13T09:01:07.614Z,97325.25
2022-09-13T09:11:36.827Z,97329.25
2022-09-13T09:21:42.135Z,97316.44
2022-09-13T09:42:27.383Z,97294.19
2022-09-13T09:52:59.219Z,97296.25
2022-09-13T10:03:10.014Z,97290.13
2022-09-13T10:13:22.061Z,97271.94
2022-09-13T10:23:25.412Z,97255.16
2022-09-13T10:33:37.472Z,97245.44
2022-09-13T10:43:41.829Z,97238.69
2022-09-13T10:54:01.759Z,97238.41
2022-09-13T11:04:21.940Z,97215.28
2022-09-13T11:14:49.769Z,97195.44
2022-09-13T11:25:15.992Z,97183.00
2022-09-13T11:35:50.496Z,97170.66
2022-09-13T11:46:21.128Z,97168.50
2022-09-13T11:56:34.661Z,97176.47
2022-09-13T12:06:44.069Z,97180.09
2022-09-13T12:16:50.946Z,97187.78
2022-09-13T12:27:01.337Z,97188.63
2022-09-13T12:37:36.223Z,97166.53
2022-09-13T12:48:07.193Z,97157.81
2022-09-13T12:58:42.036Z,97153.53
2022-09-13T13:08:52.183Z,97163.59
2022-09-13T13:19:02.275Z,97156.19
2022-09-13T13:29:20.569Z,97147.91
2022-09-13T13:39:25.940Z,97136.41
2022-09-13T13:49:31.203Z,97121.34
2022-09-13T13:59:34.955Z,97101.91
2022-09-13T14:10:11.617Z,97103.91
2022-09-13T14:20:19.354Z,97110.19
2022-09-13T14:30:38.086Z,97104.22
2022-09-13T14:40:40.879Z,97079.63
2022-09-13T14:50:48.224Z,97063.62
2022-09-13T15:00:59.216Z,97072.56
2022-09-13T15:11:04.015Z,97059.25
2022-09-13T15:21:15.700Z,97052.81
2022-09-13T15:31:24.192Z,97034.63
2022-09-13T15:41:32.788Z,97024.31
2022-09-13T15:51:39.042Z,97018.34
2022-09-13T16:01:43.711Z,97010.38
2022-09-13T16:11:47.523Z,97003.47
2022-09-13T16:32:28.300Z,96991.09
2022-09-13T16:42:30.679Z,96956.00
2022-09-13T16:52:34.849Z,96954.81
2022-09-13T17:02:37.498Z,96956.78
2022-09-13T17:12:41.210Z,96958.63
2022-09-13T17:22:44.121Z,96954.72
2022-09-13T17:32:46.340Z,96946.13
2022-09-13T17:42:49.477Z,96942.16
2022-09-13T17:52:51.969Z,96939.19
2022-09-13T18:02:54.581Z,96938.09
2022-09-13T18:12:57.162Z,96934.00
2022-09-13T18:22:59.488Z,96956.19
2022-09-13T18:33:02.189Z,96973.75
2022-09-13T18:43:04.763Z,96991.37
2022-09-13T18:53:07.376Z,96987.09
2022-09-13T19:03:12.606Z,96988.41
2022-09-13T19:13:15.304Z,96998.75
2022-09-13T19:23:17.891Z,97012.34
2022-09-13T19:33:20.516Z,97013.28
2022-09-13T19:43:23.452Z,97014.91
2022-09-13T19:53:40.867Z,97014.91
2022-09-13T20:03:54.503Z,97016.03
2022-09-13T20:13:59.878Z,97031.38
2022-09-13T20:24:04.810Z,97031.72
2022-09-13T20:34:09.526Z,97020.63
2022-09-13T20:44:12.437Z,97049.25
2022-09-13T20:54:14.832Z,97032.31
2022-09-13T21:04:18.198Z,97029.34
2022-09-13T21:14:22.337Z,97032.91
2022-09-13T21:24:25.263Z,97012.44
2022-09-13T21:34:28.843Z,97019.66
2022-09-13T21:44:31.534Z,97024.00
2022-09-13T21:54:34.236Z,97019.56
2022-09-13T22:04:36.760Z,97002.88
2022-09-13T22:14:48.926Z,97004.81
2022-09-13T22:24:51.660Z,96995.81
2022-09-13T22:34:54.107Z,96988.72
2022-09-13T22:44:56.481Z,97000.38
2022-09-13T22:54:58.703Z,96991.37
2022-09-13T23:05:01.054Z,96970.22
2022-09-13T23:15:03.308Z,96963.12
2022-09-13T23:25:06.071Z,96971.25
2022-09-13T23:35:08.783Z,96965.66
2022-09-13T23:45:12.369Z,96963.16
2022-09-13T23:55:14.681Z,96948.44
